Long Lake, Indiana
Current Conditions -  °F | °C
As of 9:35 PM on Tuesday 21 Oct 2014 (Local Time) from KANQ Reporting Station
Few Clouds Few Clouds  
Wind Chill: 43°   Ceiling: Unl
Heat Index: 43°   Visibility: 10mi
Dew Point: 25°   Wind: 0mph
Humidity: 49%   Direction: NA
Pressure: 30.21"   Gusts: NA
Location:  41.7284°N, 84.9169°W
Report Text: KANQ 220135Z AUTO 00000KT 10SM FEW037 06/M04 A3021 RMK
Loading
Personal Weather Stations






























Interactive Weather Map
Tropical Storm Tracking
New forecast layout! Learn more

10-Day Weather Forecast

Advertisements
Track Severe Weather on mobile